Accueil
METAR-TAF:

METAR-TAF

Aéroports :

Aéroport d'Annecy Haute-Savoie Mont-Blanc

Annecy, France

latitude: 45-55-45N, longitude: 006-05-56E, altitude: 463 m

Observation

Le bulletin a été fait il y a 40 minutes, à 18:30 UTC
Vent 4 kt de sud-ouest, variant entre sud et ouest
Température 27°C
Humidité 54%
Pression 1019 hPa
Visibilité 10 km ou plus
pas de nuages en-dessous de 1500 mètres et pas de cumulonimbus.

METAR: LFLP 201830Z AUTO 23004KT 190V270 CAVOK 27/17 Q1019 NOSIG

Heure: 21:10 (19:10 UTC)

Prévision

Le bulletin a été fait il y a 5 heures et 10 minutes, à 14:00 UTC
Prévision valable du 20 à 15 UTC au 21 à 15 UTC
Vent 10 kt de sud-ouest
Visibilité 10 km ou plus
pas de nuages en-dessous de 1500 mètres et pas de cumulonimbus.
Evoluant progressivement
du 21 à 08 UTC au 21 à 10 UTC
Vent 10 kt de nord-ouest

TAF: LFLP 201400Z 2015/2115 23010KT CAVOK BECMG 2108/2110 31010KT

Observations et prévisions météorologiques de plus de 4000 aéroports (messages METAR et TAF).

Les stations disponibles sont représentées par des disques jaunes et rouges sur la carte.

Passer la souris dessus pour voir le nom de la station.

Cliquer dessus pour voir les observations et prévisions météorologiques.

Pour changer de carte: cliquez sur les boutons verts avec une croix noire pour zoomer, sur le bouton vert avec un tiret pour effectuer un zoom arrière, ou sur les flèches vertes pour les cartes adjacentes.


METAR-TAF: